createdAt,value
2018-12-02T00:00:36.652Z,10.54
2018-12-02T00:01:36.936Z,10.53
2018-12-02T00:02:37.213Z,10.49
2018-12-02T00:03:36.967Z,10.38
2018-12-02T00:04:36.731Z,10.51
2018-12-02T00:05:37.008Z,10.41
2018-12-02T00:06:37.031Z,10.48
2018-12-02T00:07:36.786Z,10.48
2018-12-02T00:08:37.078Z,10.51
2018-12-02T00:09:37.087Z,10.49
2018-12-02T00:10:36.852Z,10.51
2018-12-02T00:11:37.374Z,10.42
2018-12-02T00:12:37.150Z,10.53
2018-12-02T00:13:37.433Z,10.51
2018-12-02T00:14:37.180Z,10.57
2018-12-02T00:15:37.215Z,10.51
2018-12-02T00:16:37.491Z,10.51
2018-12-02T00:17:36.980Z,10.48
2018-12-02T00:18:36.999Z,10.57
2018-12-02T00:19:37.543Z,10.48
2018-12-02T00:20:37.039Z,10.56
2018-12-02T00:21:37.585Z,10.59
2018-12-02T00:22:37.612Z,10.59
2018-12-02T00:23:37.386Z,10.57
2018-12-02T00:24:37.378Z,10.51
2018-12-02T00:25:37.144Z,10.49
2018-12-02T00:26:37.422Z,10.57
2018-12-02T00:27:37.450Z,10.61
2018-12-02T00:28:37.206Z,10.64
2018-12-02T00:29:37.214Z,10.63
2018-12-02T00:30:37.757Z,10.6
2018-12-02T00:31:37.256Z,10.61
2018-12-02T00:32:37.281Z,10.67
2018-12-02T00:33:37.294Z,10.6
2018-12-02T00:34:37.321Z,10.56
2018-12-02T00:35:37.598Z,10.63
2018-12-02T00:36:37.610Z,10.67
2018-12-02T00:37:37.374Z,10.69
2018-12-02T00:38:37.651Z,10.64
2018-12-02T00:39:37.415Z,10.56
2018-12-02T00:40:37.962Z,10.61
2018-12-02T00:41:37.721Z,10.59
2018-12-02T00:42:37.732Z,10.64
2018-12-02T00:43:37.754Z,10.6
2018-12-02T00:44:37.519Z,10.67
2018-12-02T00:45:37.793Z,10.61
2018-12-02T00:46:37.812Z,10.67
2018-12-02T00:47:37.575Z,10.57
2018-12-02T00:48:38.105Z,10.61
2018-12-02T00:49:37.624Z,10.59
2018-12-02T00:50:37.889Z,10.67
2018-12-02T00:51:38.172Z,10.69
2018-12-02T00:52:37.926Z,10.72
2018-12-02T00:53:37.958Z,10.6
2018-12-02T00:54:37.965Z,10.64
2018-12-02T00:55:37.725Z,10.57
2018-12-02T00:56:38.007Z,10.61
2018-12-02T00:57:38.018Z,10.69
2018-12-02T00:58:37.790Z,10.61
2018-12-02T00:59:37.804Z,10.64
2018-12-02T01:00:38.092Z,10.67
2018-12-02T01:01:37.847Z,10.72
2018-12-02T01:02:38.384Z,10.69
2018-12-02T01:03:38.163Z,10.69
2018-12-02T01:04:38.166Z,10.72
2018-12-02T01:05:38.198Z,10.75
2018-12-02T01:06:38.466Z,10.71
2018-12-02T01:07:37.963Z,10.72
2018-12-02T01:08:38.252Z,10.78
2018-12-02T01:09:38.528Z,10.75
2018-12-02T01:10:38.287Z,10.75
2018-12-02T01:11:38.564Z,10.72
2018-12-02T01:12:38.071Z,10.74
2018-12-02T01:13:38.348Z,10.74
2018-12-02T01:14:38.356Z,10.75
2018-12-02T01:15:38.128Z,10.68
2018-12-02T01:16:38.153Z,10.72
2018-12-02T01:17:38.411Z,10.64
2018-12-02T01:18:38.175Z,10.74
2018-12-02T01:19:38.453Z,10.81
2018-12-02T01:20:38.224Z,10.79
2018-12-02T01:21:38.513Z,10.78
2018-12-02T01:22:38.792Z,10.74
2018-12-02T01:23:38.560Z,10.68
2018-12-02T01:24:38.554Z,10.68
2018-12-02T01:25:38.835Z,10.72
2018-12-02T01:26:38.587Z,10.68
2018-12-02T01:27:38.619Z,10.72
2018-12-02T01:28:38.366Z,10.74
2018-12-02T01:29:38.408Z,10.69
2018-12-02T01:30:38.925Z,10.81
2018-12-02T01:31:38.428Z,10.79
2018-12-02T01:32:38.726Z,10.75
2018-12-02T01:33:38.486Z,10.76
2018-12-02T01:34:38.759Z,10.81
2018-12-02T01:35:39.040Z,10.75
2018-12-02T01:36:38.526Z,10.72
2018-12-02T01:37:38.554Z,10.78
2018-12-02T01:38:38.829Z,10.79
2018-12-02T01:39:38.844Z,10.76
2018-12-02T01:40:38.626Z,10.78
2018-12-02T01:41:38.888Z,10.76
2018-12-02T01:42:38.660Z,10.78
2018-12-02T01:43:38.944Z,10.72
2018-12-02T01:44:39.216Z,10.72
2018-12-02T01:45:38.715Z,10.76
2018-12-02T01:46:39.007Z,10.76
2018-12-02T01:47:38.761Z,10.71
2018-12-02T01:48:39.290Z,10.75
2018-12-02T01:49:39.040Z,10.78
2018-12-02T01:50:38.805Z,10.75
2018-12-02T01:51:38.826Z,10.74
2018-12-02T01:52:38.850Z,10.78
2018-12-02T01:53:39.147Z,10.74
2018-12-02T01:54:39.143Z,10.81
2018-12-02T01:55:39.164Z,10.79
2018-12-02T01:56:38.926Z,10.76
2018-12-02T01:57:39.206Z,10.78
2018-12-02T01:58:39.236Z,10.74
2018-12-02T01:59:39.251Z,10.78
2018-12-02T02:00:39.520Z,10.74
2018-12-02T02:01:39.024Z,10.71
2018-12-02T02:02:39.037Z,10.75
2018-12-02T02:03:39.326Z,10.84
2018-12-02T02:04:39.341Z,10.76
2018-12-02T02:05:39.356Z,10.71
2018-12-02T02:06:39.397Z,10.79
2018-12-02T02:07:39.450Z,10.86
2018-12-02T02:08:39.418Z,10.74
2018-12-02T02:09:39.692Z,10.78
2018-12-02T02:10:39.206Z,10.75
2018-12-02T02:11:39.483Z,10.81
2018-12-02T02:12:39.748Z,10.76
2018-12-02T02:13:39.519Z,10.79
2018-12-02T02:14:39.801Z,10.74
2018-12-02T02:15:39.824Z,10.75
2018-12-02T02:16:39.325Z,10.86
2018-12-02T02:17:39.602Z,10.76
2018-12-02T02:18:39.613Z,10.81
2018-12-02T02:19:39.631Z,10.78
2018-12-02T02:20:39.390Z,10.76
2018-12-02T02:21:39.417Z,10.81
2018-12-02T02:22:39.688Z,10.76
2018-12-02T02:23:39.459Z,10.82
2018-12-02T02:24:39.731Z,10.86
2018-12-02T02:25:40.006Z,10.87
2018-12-02T02:26:39.781Z,10.76
2018-12-02T02:27:39.793Z,10.78
2018-12-02T02:28:39.817Z,10.75
2018-12-02T02:29:40.109Z,10.79
2018-12-02T02:30:39.852Z,10.76
2018-12-02T02:31:40.148Z,10.76
2018-12-02T02:32:40.174Z,10.79
2018-12-02T02:33:40.172Z,10.75
2018-12-02T02:34:39.668Z,10.76
2018-12-02T02:35:40.207Z,10.81
2018-12-02T02:36:39.707Z,10.79
2018-12-02T02:37:40.001Z,10.81
2018-12-02T02:38:40.004Z,10.81
2018-12-02T02:39:39.778Z,10.79
2018-12-02T02:40:40.048Z,10.92
2018-12-02T02:41:40.076Z,10.92
2018-12-02T02:42:40.097Z,10.78
2018-12-02T02:43:40.112Z,10.79
2018-12-02T02:44:39.877Z,10.87
2018-12-02T02:45:40.415Z,10.78
2018-12-02T02:46:39.902Z,10.82
2018-12-02T02:47:40.459Z,10.78
2018-12-02T02:48:39.963Z,10.87
2018-12-02T02:49:40.238Z,10.76
2018-12-02T02:50:40.238Z,10.78
2018-12-02T02:51:40.005Z,10.82
2018-12-02T02:52:40.277Z,10.76
2018-12-02T02:53:40.302Z,10.72
2018-12-02T02:54:40.328Z,10.76
2018-12-02T02:55:40.364Z,10.76
2018-12-02T02:56:40.405Z,10.81
2018-12-02T02:57:40.384Z,10.79
2018-12-02T02:58:40.400Z,10.76
2018-12-02T02:59:40.424Z,10.75
2018-12-02T03:00:40.440Z,10.81
2018-12-02T03:01:40.714Z,10.81
2018-12-02T03:02:40.492Z,10.76
2018-12-02T03:03:40.244Z,10.75
2018-12-02T03:04:40.526Z,10.74
2018-12-02T03:05:40.541Z,10.72
2018-12-02T03:06:40.568Z,10.79
2018-12-02T03:07:40.587Z,10.78
2018-12-02T03:08:40.610Z,10.87
2018-12-02T03:09:40.368Z,10.74
2018-12-02T03:10:40.890Z,10.79
2018-12-02T03:11:40.407Z,10.76
2018-12-02T03:12:40.966Z,10.71
2018-12-02T03:13:40.694Z,10.74
2018-12-02T03:14:40.709Z,10.71
2018-12-02T03:15:40.469Z,10.74
2018-12-02T03:16:40.759Z,10.79
2018-12-02T03:17:40.773Z,10.74
2018-12-02T03:18:40.789Z,10.74
2018-12-02T03:19:40.554Z,10.71
2018-12-02T03:20:41.127Z,10.74
2018-12-02T03:21:40.598Z,10.84
2018-12-02T03:22:41.129Z,10.72
2018-12-02T03:23:40.637Z,10.82
2018-12-02T03:24:40.930Z,10.78
2018-12-02T03:25:40.670Z,10.72
2018-12-02T03:26:40.951Z,10.67
2018-12-02T03:27:40.989Z,10.72
2018-12-02T03:28:40.994Z,10.75
2018-12-02T03:29:41.010Z,10.81
2018-12-02T03:30:41.033Z,10.82
2018-12-02T03:31:41.103Z,10.68
2018-12-02T03:32:40.863Z,10.74
2018-12-02T03:33:40.840Z,10.71
2018-12-02T03:34:41.378Z,10.78
2018-12-02T03:35:41.125Z,10.71
2018-12-02T03:36:41.417Z,10.71
2018-12-02T03:37:41.174Z,10.72
2018-12-02T03:38:41.186Z,10.67
2018-12-02T03:39:41.223Z,10.72
2018-12-02T03:40:40.982Z,10.81
2018-12-02T03:41:41.263Z,10.81
2018-12-02T03:42:41.007Z,10.71
2018-12-02T03:43:41.292Z,10.71
2018-12-02T03:44:41.322Z,10.81
2018-12-02T03:45:41.337Z,10.79
2018-12-02T03:46:41.090Z,10.78
2018-12-02T03:47:41.367Z,10.78
2018-12-02T03:48:41.401Z,10.81
2018-12-02T03:49:41.673Z,10.76
2018-12-02T03:50:41.175Z,10.79
2018-12-02T03:51:41.702Z,10.68
2018-12-02T03:52:41.217Z,10.72
2018-12-02T03:53:41.239Z,10.76
2018-12-02T03:54:41.245Z,10.84
2018-12-02T03:55:41.775Z,10.76
2018-12-02T03:56:41.280Z,10.81
2018-12-02T03:57:41.835Z,10.81
2018-12-02T03:58:41.581Z,10.78
2018-12-02T03:59:41.352Z,10.79
2018-12-02T04:00:41.360Z,10.72
2018-12-02T04:01:41.645Z,10.74
2018-12-02T04:02:41.921Z,10.89
2018-12-02T04:03:41.695Z,10.78
2018-12-02T04:04:41.768Z,10.78
2018-12-02T04:05:41.727Z,10.81
2018-12-02T04:06:41.992Z,10.81
2018-12-02T04:07:41.763Z,10.82
2018-12-02T04:08:41.526Z,10.81
2018-12-02T04:09:41.539Z,10.78
2018-12-02T04:10:41.570Z,10.76
2018-12-02T04:11:41.842Z,10.74
2018-12-02T04:12:42.129Z,10.82
2018-12-02T04:13:41.886Z,10.76
2018-12-02T04:14:41.918Z,10.82
2018-12-02T04:15:41.926Z,10.75
2018-12-02T04:16:41.684Z,10.79
2018-12-02T04:17:41.699Z,10.74
2018-12-02T04:18:42.229Z,10.81
2018-12-02T04:19:41.739Z,10.79
2018-12-02T04:20:42.280Z,10.78
2018-12-02T04:21:42.037Z,10.76
2018-12-02T04:22:42.091Z,10.76
2018-12-02T04:23:42.334Z,10.79
2018-12-02T04:24:42.114Z,10.86
2018-12-02T04:25:42.367Z,10.81
2018-12-02T04:26:42.139Z,10.87
2018-12-02T04:27:42.170Z,10.76
2018-12-02T04:28:42.187Z,10.78
2018-12-02T04:29:42.190Z,10.76
2018-12-02T04:30:42.230Z,10.79
2018-12-02T04:31:41.990Z,10.78
2018-12-02T04:32:41.995Z,10.79
2018-12-02T04:33:42.547Z,10.72
2018-12-02T04:34:42.625Z,10.76
2018-12-02T04:35:42.330Z,10.78
2018-12-02T04:36:42.619Z,10.78
2018-12-02T04:37:42.113Z,10.84
2018-12-02T04:38:42.112Z,10.82
2018-12-02T04:39:42.149Z,10.78
2018-12-02T04:40:42.408Z,10.76
2018-12-02T04:41:42.686Z,10.76
2018-12-02T04:42:42.466Z,10.78
2018-12-02T04:43:42.471Z,10.82
2018-12-02T04:44:42.482Z,10.78
2018-12-02T04:45:42.522Z,10.79
2018-12-02T04:46:42.537Z,10.82
2018-12-02T04:47:42.806Z,10.82
2018-12-02T04:48:42.583Z,10.76
2018-12-02T04:49:42.595Z,10.76
2018-12-02T04:50:42.616Z,10.76
2018-12-02T04:51:42.621Z,10.79
2018-12-02T04:52:42.919Z,10.81
2018-12-02T04:53:42.664Z,10.81
2018-12-02T04:54:42.935Z,10.75
2018-12-02T04:55:42.696Z,10.76
2018-12-02T04:56:42.749Z,10.81
2018-12-02T04:57:42.487Z,10.81
2018-12-02T04:58:42.508Z,10.75
2018-12-02T04:59:43.050Z,10.75
2018-12-02T05:00:43.059Z,10.79
2018-12-02T05:01:42.830Z,10.74
2018-12-02T05:02:43.094Z,10.75
2018-12-02T05:03:43.128Z,10.79
2018-12-02T05:04:43.152Z,10.71
2018-12-02T05:05:42.907Z,10.72
2018-12-02T05:06:43.184Z,10.81
2018-12-02T05:07:43.200Z,10.75
2018-12-02T05:08:43.218Z,10.75
2018-12-02T05:09:42.728Z,10.74
2018-12-02T05:10:43.253Z,10.82
2018-12-02T05:11:43.283Z,10.74
2018-12-02T05:12:43.038Z,10.69
2018-12-02T05:13:43.058Z,10.69
2018-12-02T05:14:43.073Z,10.68
2018-12-02T05:15:43.361Z,10.74
2018-12-02T05:16:43.367Z,10.69
2018-12-02T05:17:42.873Z,10.68
2018-12-02T05:18:43.440Z,10.75
2018-12-02T05:19:42.921Z,10.74
2018-12-02T05:20:43.191Z,10.72
2018-12-02T05:21:43.212Z,10.69
2018-12-02T05:22:43.248Z,10.74
2018-12-02T05:23:43.009Z,10.67
2018-12-02T05:24:43.279Z,10.69
2018-12-02T05:25:43.566Z,10.67
2018-12-02T05:26:43.071Z,10.64
2018-12-02T05:27:45.255Z,10.63
2018-12-02T05:28:43.352Z,10.61
2018-12-02T05:29:43.129Z,10.71
2018-12-02T05:30:43.644Z,10.68
2018-12-02T05:31:43.669Z,10.61
2018-12-02T05:32:43.437Z,10.61
2018-12-02T05:33:43.459Z,10.59
2018-12-02T05:34:43.207Z,10.69
2018-12-02T05:35:43.741Z,10.59
2018-12-02T05:36:43.509Z,10.6
2018-12-02T05:37:43.273Z,10.75
2018-12-02T05:38:43.814Z,10.69
2018-12-02T05:39:43.302Z,10.6
2018-12-02T05:40:43.856Z,10.59
2018-12-02T05:41:43.857Z,10.69
2018-12-02T05:42:43.367Z,10.59
2018-12-02T05:43:43.654Z,10.59
2018-12-02T05:44:43.417Z,10.61
2018-12-02T05:45:43.688Z,10.72
2018-12-02T05:46:43.444Z,10.64
2018-12-02T05:47:43.980Z,10.59
2018-12-02T05:48:43.992Z,10.63
2018-12-02T05:49:44.032Z,10.57
2018-12-02T05:50:43.788Z,10.61
2018-12-02T05:51:43.822Z,10.69
2018-12-02T05:52:44.093Z,10.67
2018-12-02T05:53:43.594Z,10.68
2018-12-02T05:54:43.877Z,10.61
2018-12-02T05:55:44.154Z,10.63
2018-12-02T05:56:43.913Z,10.6
2018-12-02T05:57:44.178Z,10.63
2018-12-02T05:58:43.938Z,10.67
2018-12-02T05:59:44.223Z,10.61
2018-12-02T06:00:43.973Z,10.64
2018-12-02T06:01:43.994Z,10.51
2018-12-02T06:02:44.201Z,10.61
2018-12-02T06:03:43.781Z,10.64
2018-12-02T06:04:44.066Z,10.68
2018-12-02T06:05:43.823Z,10.54
2018-12-02T06:06:43.851Z,10.61
2018-12-02T06:07:44.140Z,10.57
2018-12-02T06:08:43.886Z,10.63
2018-12-02T06:09:44.165Z,10.57
2018-12-02T06:10:44.177Z,10.54
2018-12-02T06:11:48.701Z,10.59
2018-12-02T06:12:44.229Z,10.54
2018-12-02T06:13:43.986Z,10.59
2018-12-02T06:14:44.248Z,10.51
2018-12-02T06:15:44.271Z,10.59
2018-12-02T06:16:44.036Z,10.56
2018-12-02T06:17:44.309Z,10.51
2018-12-02T06:18:44.068Z,10.53
2018-12-02T06:19:44.115Z,10.48
2018-12-02T06:20:44.401Z,10.44
2018-12-02T06:21:44.386Z,10.44
2018-12-02T06:22:44.404Z,10.53
2018-12-02T06:23:44.437Z,10.49
2018-12-02T06:24:44.447Z,10.51
2018-12-02T06:25:51.123Z,10.59
2018-12-02T06:26:44.243Z,10.53
2018-12-02T06:27:44.248Z,10.53
2018-12-02T06:28:44.265Z,10.46
2018-12-02T06:29:44.296Z,10.56
2018-12-02T06:30:44.562Z,10.54
2018-12-02T06:31:44.606Z,10.53
2018-12-02T06:32:44.860Z,10.57
2018-12-02T06:33:44.643Z,10.48
2018-12-02T06:34:44.655Z,10.49
2018-12-02T06:35:44.936Z,10.48
2018-12-02T06:36:45.946Z,10.51
2018-12-02T06:37:44.720Z,10.49
2018-12-02T06:38:44.734Z,10.48
2018-12-02T06:39:44.763Z,10.46
2018-12-02T06:40:44.511Z,10.46
2018-12-02T06:41:44.785Z,10.53
2018-12-02T06:42:44.803Z,10.53
2018-12-02T06:43:45.088Z,10.54
2018-12-02T06:44:45.098Z,10.48
2018-12-02T06:45:44.884Z,10.49
2018-12-02T06:46:45.135Z,10.49
2018-12-02T06:47:44.902Z,10.51
2018-12-02T06:48:45.195Z,10.46
2018-12-02T06:49:44.696Z,10.49
2018-12-02T06:50:44.966Z,10.51
2018-12-02T06:51:44.976Z,10.54
2018-12-02T06:52:45.002Z,10.53
2018-12-02T06:53:45.831Z,10.57
2018-12-02T06:54:45.036Z,10.56
2018-12-02T06:55:45.066Z,10.56
2018-12-02T06:56:45.337Z,10.56
2018-12-02T06:57:45.099Z,10.48
2018-12-02T06:58:44.871Z,10.42
2018-12-02T06:59:45.133Z,10.48
2018-12-02T07:00:44.903Z,10.48
2018-12-02T07:01:45.450Z,10.54
2018-12-02T07:02:44.942Z,10.54
2018-12-02T07:03:44.967Z,10.54
2018-12-02T07:04:45.493Z,10.48
2018-12-02T07:05:45.005Z,10.56
2018-12-02T07:06:45.273Z,10.51
2018-12-02T07:07:45.298Z,10.53
2018-12-02T07:08:45.057Z,10.49
2018-12-02T07:09:45.348Z,10.54
2018-12-02T07:10:45.607Z,10.59
2018-12-02T07:11:45.370Z,10.51
2018-12-02T07:12:45.135Z,10.54
2018-12-02T07:13:45.412Z,10.56
2018-12-02T07:14:45.195Z,10.53
2018-12-02T07:15:45.706Z,10.54
2018-12-02T07:16:45.211Z,10.53
2018-12-02T07:17:45.497Z,10.46
2018-12-02T07:18:45.522Z,10.48
2018-12-02T07:19:45.276Z,10.54
2018-12-02T07:20:45.292Z,10.48
2018-12-02T07:21:45.325Z,10.48
2018-12-02T07:22:45.597Z,10.53
2018-12-02T07:23:45.872Z,10.54
2018-12-02T07:24:45.894Z,10.57
2018-12-02T07:25:45.652Z,10.53
2018-12-02T07:26:45.667Z,10.51
2018-12-02T07:27:45.687Z,10.57
2018-12-02T07:28:45.705Z,10.51
2018-12-02T07:29:45.726Z,10.53
2018-12-02T07:30:45.754Z,10.54
2018-12-02T07:31:45.502Z,10.49
2018-12-02T07:32:46.071Z,10.56
2018-12-02T07:33:45.554Z,10.53
2018-12-02T07:34:45.558Z,10.51
2018-12-02T07:35:45.865Z,10.61
2018-12-02T07:36:45.860Z,10.6
2018-12-02T07:37:45.880Z,10.53
2018-12-02T07:38:45.907Z,10.53
2018-12-02T07:39:45.672Z,10.48
2018-12-02T07:40:45.949Z,10.54
2018-12-02T07:41:45.960Z,10.59
2018-12-02T07:42:45.725Z,10.6
2018-12-02T07:43:45.999Z,10.63
2018-12-02T07:44:45.766Z,10.69
2018-12-02T07:45:46.047Z,10.61
2018-12-02T07:46:45.812Z,10.6
2018-12-02T07:47:46.086Z,10.61
2018-12-02T07:48:46.100Z,10.57
2018-12-02T07:49:46.120Z,10.63
2018-12-02T07:50:46.404Z,10.6
2018-12-02T07:51:46.171Z,10.68
2018-12-02T07:52:45.923Z,10.61
2018-12-02T07:53:46.449Z,10.61
2018-12-02T07:54:45.960Z,10.63
2018-12-02T07:55:46.234Z,10.59
2018-12-02T07:56:46.253Z,10.64
2018-12-02T07:57:46.271Z,10.74
2018-12-02T07:58:46.034Z,10.69
2018-12-02T07:59:46.059Z,10.69
2018-12-02T08:00:46.082Z,10.61
2018-12-02T08:01:46.108Z,10.6
2018-12-02T08:02:46.119Z,10.69
2018-12-02T08:03:46.389Z,10.63
2018-12-02T08:04:46.686Z,10.75
2018-12-02T08:05:46.437Z,10.72
2018-12-02T08:06:46.720Z,10.67
2018-12-02T08:07:46.476Z,10.69
2018-12-02T08:08:46.230Z,10.78
2018-12-02T08:09:46.767Z,10.68
2018-12-02T08:10:46.784Z,10.74
2018-12-02T08:11:46.559Z,10.72
2018-12-02T08:12:46.567Z,10.78
2018-12-02T08:13:46.860Z,10.78
2018-12-02T08:14:46.360Z,10.75
2018-12-02T08:15:46.386Z,10.75
2018-12-02T08:16:46.648Z,10.82
2018-12-02T08:17:46.667Z,10.76
2018-12-02T08:18:46.685Z,10.76
2018-12-02T08:19:46.716Z,10.78
2018-12-02T08:20:46.473Z,10.84
2018-12-02T08:21:46.745Z,10.9
2018-12-02T08:22:51.232Z,10.87
2018-12-02T08:23:46.796Z,10.89
2018-12-02T08:24:46.803Z,10.84
2018-12-02T08:25:46.823Z,10.9
2018-12-02T08:26:46.861Z,10.86
2018-12-02T08:27:46.870Z,10.9
2018-12-02T08:28:47.205Z,10.97
2018-12-02T08:29:46.642Z,10.92
2018-12-02T08:30:46.929Z,10.93
2018-12-02T08:31:46.690Z,10.92
2018-12-02T08:32:46.707Z,10.94
2018-12-02T08:33:46.993Z,10.94
2018-12-02T08:34:47.007Z,11.05
2018-12-02T08:35:47.018Z,11.05
2018-12-02T08:36:47.296Z,10.96
2018-12-02T08:37:46.809Z,11.02
2018-12-02T08:38:46.823Z,11.02
2018-12-02T08:39:46.857Z,10.94
2018-12-02T08:40:47.131Z,10.96
2018-12-02T08:41:47.143Z,11.04
2018-12-02T08:42:47.167Z,11.04
2018-12-02T08:43:47.434Z,11.05
2018-12-02T08:44:47.199Z,11.1
2018-12-02T08:45:47.472Z,11.1
2018-12-02T08:46:46.981Z,11.12
2018-12-02T08:47:47.270Z,11.11
2018-12-02T08:48:47.049Z,11.02
2018-12-02T08:49:47.300Z,11.12
2018-12-02T08:50:47.317Z,11.14
2018-12-02T08:51:47.364Z,11.15
2018-12-02T08:52:47.400Z,11.08
2018-12-02T08:53:47.638Z,11.11
2018-12-02T08:54:47.392Z,11.1
2018-12-02T08:55:47.155Z,11.1
2018-12-02T08:56:47.435Z,11.14
2018-12-02T08:57:47.195Z,11.08
2018-12-02T08:58:47.474Z,11.18
2018-12-02T08:59:47.501Z,11.23
2018-12-02T09:00:47.781Z,11.22
2018-12-02T09:01:47.321Z,11.22
2018-12-02T09:02:47.568Z,11.19
2018-12-02T09:03:47.581Z,11.19
2018-12-02T09:04:47.587Z,11.17
2018-12-02T09:05:47.632Z,11.17
2018-12-02T09:06:47.894Z,11.18
2018-12-02T09:07:47.391Z,11.19
2018-12-02T09:08:47.686Z,11.17
2018-12-02T09:09:47.429Z,11.19
2018-12-02T09:10:48.839Z,11.23
2018-12-02T09:11:47.727Z,11.19
2018-12-02T09:12:47.487Z,11.25
2018-12-02T09:13:47.503Z,11.27
2018-12-02T09:14:47.784Z,11.3
2018-12-02T09:15:47.806Z,11.27
2018-12-02T09:16:47.842Z,11.36
2018-12-02T09:17:47.585Z,11.29
2018-12-02T09:18:48.121Z,11.32
2018-12-02T09:19:47.625Z,11.36
2018-12-02T09:20:47.915Z,11.3
2018-12-02T09:21:47.667Z,11.3
2018-12-02T09:22:48.210Z,11.4
2018-12-02T09:23:52.173Z,11.36
2018-12-02T09:24:47.985Z,11.32
2018-12-02T09:25:48.007Z,11.33
2018-12-02T09:26:48.282Z,11.43
2018-12-02T09:27:47.783Z,11.37
2018-12-02T09:28:48.066Z,11.36
2018-12-02T09:29:48.087Z,11.3
2018-12-02T09:30:48.107Z,11.3
2018-12-02T09:31:47.862Z,11.33
2018-12-02T09:32:48.150Z,11.35
2018-12-02T09:33:47.914Z,11.41
2018-12-02T09:34:48.440Z,11.37
2018-12-02T09:35:47.945Z,11.32
2018-12-02T09:36:48.218Z,11.41
2018-12-02T09:37:47.994Z,11.33
2018-12-02T09:38:48.002Z,11.4
2018-12-02T09:39:48.023Z,11.37
2018-12-02T09:40:48.303Z,11.44
2018-12-02T09:41:48.579Z,11.4
2018-12-02T09:42:48.337Z,11.37
2018-12-02T09:43:48.613Z,11.52
2018-12-02T09:44:48.128Z,11.41
2018-12-02T09:45:48.405Z,11.37
2018-12-02T09:46:48.165Z,11.43
2018-12-02T09:47:48.200Z,11.5
2018-12-02T09:48:48.458Z,11.45
2018-12-02T09:49:48.487Z,11.33
2018-12-02T09:50:48.754Z,11.45
2018-12-02T09:51:48.523Z,11.44
2018-12-02T09:52:48.544Z,11.52
2018-12-02T09:53:48.558Z,11.48
2018-12-02T09:54:48.336Z,11.48
2018-12-02T09:55:48.854Z,11.52
2018-12-02T09:56:48.636Z,11.52
2018-12-02T09:57:48.381Z,11.48
2018-12-02T09:58:48.661Z,11.54
2018-12-02T09:59:48.432Z,11.45
2018-12-02T10:00:48.710Z,11.52
2018-12-02T10:01:48.990Z,11.47
2018-12-02T10:02:48.479Z,11.52
2018-12-02T10:03:48.776Z,11.55
2018-12-02T10:04:48.515Z,11.57
2018-12-02T10:05:48.546Z,11.44
2018-12-02T10:06:49.083Z,11.57
2018-12-02T10:07:48.846Z,11.57
2018-12-02T10:08:48.851Z,11.54
2018-12-02T10:09:48.885Z,11.52
2018-12-02T10:10:48.898Z,11.51
2018-12-02T10:11:48.914Z,11.62
2018-12-02T10:12:48.949Z,11.55
2018-12-02T10:13:48.697Z,11.6
2018-12-02T10:14:48.721Z,11.6
2018-12-02T10:15:49.276Z,11.54
2018-12-02T10:16:48.768Z,11.59
2018-12-02T10:17:49.036Z,11.6
2018-12-02T10:18:48.812Z,11.55
2018-12-02T10:19:48.819Z,11.57
2018-12-02T10:20:48.853Z,11.62
2018-12-02T10:21:48.861Z,11.51
2018-12-02T10:22:49.155Z,11.55
2018-12-02T10:23:49.160Z,11.57
2018-12-02T10:24:48.920Z,11.54
2018-12-02T10:25:49.196Z,11.57
2018-12-02T10:26:49.205Z,11.54
2018-12-02T10:27:49.235Z,11.55
2018-12-02T10:28:49.531Z,11.5
2018-12-02T10:29:49.275Z,11.55
2018-12-02T10:30:49.048Z,11.62
2018-12-02T10:31:49.315Z,11.55
2018-12-02T10:32:49.069Z,11.51
2018-12-02T10:33:49.604Z,11.6
2018-12-02T10:34:49.377Z,11.54
2018-12-02T10:35:49.646Z,11.59
2018-12-02T10:36:49.416Z,11.52
2018-12-02T10:37:49.441Z,11.62
2018-12-02T10:38:49.452Z,11.55
2018-12-02T10:39:49.740Z,11.59
2018-12-02T10:40:49.490Z,11.68
2018-12-02T10:41:49.297Z,11.78
2018-12-02T10:42:49.790Z,12
2018-12-02T10:43:49.544Z,12.29
2018-12-02T10:44:49.321Z,12.6
2018-12-02T10:45:49.585Z,12.83
2018-12-02T10:46:49.398Z,13.16
2018-12-02T10:47:49.891Z,13.57
2018-12-02T10:48:49.970Z,13.78
2018-12-02T10:49:49.424Z,14.1
2018-12-02T10:50:49.687Z,14.41
2018-12-02T10:51:49.711Z,14.63
2018-12-02T10:52:49.478Z,14.94
2018-12-02T10:53:49.755Z,15.22
2018-12-02T10:54:49.769Z,15.52
2018-12-02T10:55:49.798Z,15.76
2018-12-02T10:56:49.817Z,16.01
2018-12-02T10:57:49.825Z,16.26
2018-12-02T10:58:49.853Z,16.54
2018-12-02T10:59:49.869Z,16.6
2018-12-02T11:00:49.645Z,16.84
2018-12-02T11:01:50.172Z,17.15
2018-12-02T11:02:50.193Z,17.22
2018-12-02T11:03:49.706Z,17.56
2018-12-02T11:04:49.985Z,17.71
2018-12-02T11:05:50.004Z,17.97
2018-12-02T11:06:50.034Z,18.2
2018-12-02T11:07:50.061Z,18.35
2018-12-02T11:08:50.076Z,18.89
2018-12-02T11:09:49.839Z,19.58
2018-12-02T11:10:50.122Z,20.19
2018-12-02T11:11:50.133Z,20.74
2018-12-02T11:12:50.149Z,21.37
2018-12-02T11:13:50.179Z,21.83
2018-12-02T11:14:50.198Z,22.22
2018-12-02T11:15:50.235Z,22.57
2018-12-02T11:16:50.500Z,22.85
2018-12-02T11:17:50.010Z,22.85
2018-12-02T11:18:50.288Z,22.47
2018-12-02T11:19:50.322Z,22.04
2018-12-02T11:20:50.345Z,21.55
2018-12-02T11:21:50.615Z,20.88
2018-12-02T11:22:50.384Z,20.5
2018-12-02T11:23:50.409Z,19.91
2018-12-02T11:24:50.431Z,19.49
2018-12-02T11:25:50.447Z,19.29
2018-12-02T11:26:50.474Z,19.3
2018-12-02T11:27:50.283Z,19.56
2018-12-02T11:28:50.257Z,19.88
2018-12-02T11:29:50.563Z,20.19
2018-12-02T11:30:50.308Z,20.56
2018-12-02T11:31:50.336Z,20.9
2018-12-02T11:32:50.363Z,21.21
2018-12-02T11:33:50.631Z,21.67
2018-12-02T11:34:50.403Z,21.95
2018-12-02T11:35:50.434Z,22.35
2018-12-02T11:36:50.966Z,22.47
2018-12-02T11:37:50.472Z,22.41
2018-12-02T11:38:50.747Z,22.06
2018-12-02T11:39:50.525Z,21.66
2018-12-02T11:40:51.067Z,21.24
2018-12-02T11:41:51.075Z,20.95
2018-12-02T11:42:50.578Z,20.88
2018-12-02T11:43:50.885Z,21.02
2018-12-02T11:44:50.891Z,21.35
2018-12-02T11:45:50.670Z,21.61
2018-12-02T11:46:50.932Z,21.92
2018-12-02T11:47:50.698Z,22.13
2018-12-02T11:48:50.990Z,21.98
2018-12-02T11:49:50.745Z,21.64
2018-12-02T11:50:51.289Z,21.32
2018-12-02T11:51:50.796Z,20.82
2018-12-02T11:52:51.347Z,20.4
2018-12-02T11:53:51.373Z,20.4
2018-12-02T11:54:50.880Z,20.55
2018-12-02T11:55:51.162Z,20.72
2018-12-02T11:56:51.173Z,21
2018-12-02T11:57:51.224Z,21.36
2018-12-02T11:58:51.076Z,21.64
2018-12-02T11:59:51.253Z,21.75
2018-12-02T12:00:51.526Z,21.55
2018-12-02T12:01:51.548Z,21.24
2018-12-02T12:02:51.569Z,20.85
2018-12-02T12:03:51.196Z,20.44
2018-12-02T12:04:51.358Z,20.29
2018-12-02T12:05:51.447Z,20.28
2018-12-02T12:06:51.408Z,20.5
2018-12-02T12:07:51.686Z,20.78
2018-12-02T12:08:51.660Z,21.07
2018-12-02T12:09:51.753Z,21.48
2018-12-02T12:10:51.554Z,21.64
2018-12-02T12:11:51.518Z,21.64
2018-12-02T12:12:51.298Z,21.43
2018-12-02T12:13:51.586Z,21.25
2018-12-02T12:14:51.597Z,21.06
2018-12-02T12:15:51.617Z,20.82
2018-12-02T12:16:51.382Z,20.55
2018-12-02T12:17:51.926Z,20.22
2018-12-02T12:18:52.021Z,19.99
2018-12-02T12:19:51.729Z,19.71
2018-12-02T12:20:52.058Z,19.59
2018-12-02T12:21:51.764Z,19.4
2018-12-02T12:22:52.148Z,19.16
2018-12-02T12:23:52.067Z,18.88
2018-12-02T12:24:51.842Z,18.83
2018-12-02T12:25:51.860Z,18.71
2018-12-02T12:26:51.635Z,18.47
2018-12-02T12:27:51.929Z,18.43
2018-12-02T12:28:52.186Z,18.29
2018-12-02T12:29:51.895Z,18.19
2018-12-02T12:30:51.716Z,18.04
2018-12-02T12:31:52.002Z,17.95
2018-12-02T12:32:52.261Z,17.71
2018-12-02T12:33:52.059Z,17.67
2018-12-02T12:34:52.325Z,17.64
2018-12-02T12:35:52.362Z,17.49
2018-12-02T12:36:52.123Z,17.42
2018-12-02T12:37:51.875Z,17.36
2018-12-02T12:38:52.170Z,17.24
2018-12-02T12:39:52.182Z,17.15
2018-12-02T12:40:52.212Z,17.14
2018-12-02T12:41:52.238Z,16.97
2018-12-02T12:42:52.253Z,16.89
2018-12-02T12:43:52.038Z,16.76
2018-12-02T12:44:52.044Z,16.74
2018-12-02T12:45:52.318Z,16.69
2018-12-02T12:46:52.344Z,16.57
2018-12-02T12:47:52.640Z,16.57
2018-12-02T12:48:52.656Z,16.54
2018-12-02T12:49:52.432Z,16.57
2018-12-02T12:50:52.182Z,16.43
2018-12-02T12:51:52.199Z,16.38
2018-12-02T12:52:52.484Z,16.38
2018-12-02T12:53:52.760Z,16.33
2018-12-02T12:54:52.275Z,16.13